sensor_id;sensor_type;location;lat;lon;timestamp;pressure;altitude;pressure_sealevel;temperature;humidity
31585;BME280;18191;51.288;12.390;2023-05-10T00:04:31;48865.63;;;-144.47;57.64
31585;BME280;18191;51.288;12.390;2023-05-10T00:09:21;48903.41;;;-144.47;58.69
31585;BME280;18191;51.288;12.390;2023-05-10T00:14:11;48841.75;;;-144.47;58.32
31585;BME280;18191;51.288;12.390;2023-05-10T00:19:01;48843.72;;;-144.47;57.97
31585;BME280;18191;51.288;12.390;2023-05-10T00:23:52;48901.41;;;-144.47;58.47
31585;BME280;18191;51.288;12.390;2023-05-10T00:28:43;48887.50;;;-144.47;57.74
31585;BME280;18191;51.288;12.390;2023-05-10T00:33:33;48893.47;;;-144.47;57.38
31585;BME280;18191;51.288;12.390;2023-05-10T00:38:23;48881.53;;;-144.47;57.92
31585;BME280;18191;51.288;12.390;2023-05-10T00:43:15;48921.31;;;-144.47;58.05
31585;BME280;18191;51.288;12.390;2023-05-10T00:48:05;48861.63;;;-144.47;58.85
31585;BME280;18191;51.288;12.390;2023-05-10T00:52:55;48883.53;;;-144.47;59.37
31585;BME280;18191;51.288;12.390;2023-05-10T00:57:46;48857.66;;;-144.47;59.20
31585;BME280;18191;51.288;12.390;2023-05-10T01:02:36;48893.47;;;-144.47;59.71
31585;BME280;18191;51.288;12.390;2023-05-10T01:07:27;48881.53;;;-144.47;59.39
31585;BME280;18191;51.288;12.390;2023-05-10T01:12:18;48871.59;;;-144.47;59.76
31585;BME280;18191;51.288;12.390;2023-05-10T01:17:08;48843.72;;;-144.47;59.76
31585;BME280;18191;51.288;12.390;2023-05-10T01:22:09;48887.50;;;-144.47;60.19
31585;BME280;18191;51.288;12.390;2023-05-10T01:27:11;48899.44;;;-144.47;59.73
31585;BME280;18191;51.288;12.390;2023-05-10T01:32:23;48847.72;;;-144.47;59.96
31585;BME280;18191;51.288;12.390;2023-05-10T01:37:20;48869.59;;;-144.47;60.49
31585;BME280;18191;51.288;12.390;2023-05-10T01:42:14;48853.69;;;-144.47;60.42
31585;BME280;18191;51.288;12.390;2023-05-10T01:47:15;48861.63;;;-144.47;60.28
31585;BME280;18191;51.288;12.390;2023-05-10T01:52:08;48895.44;;;-144.47;60.88
31585;BME280;18191;51.288;12.390;2023-05-10T01:57:00;48855.66;;;-144.47;60.68
31585;BME280;18191;51.288;12.390;2023-05-10T02:01:53;48899.44;;;-144.47;60.06
31585;BME280;18191;51.288;12.390;2023-05-10T02:06:44;48845.72;;;-144.47;60.30
31585;BME280;18191;51.288;12.390;2023-05-10T02:11:35;48905.41;;;-144.47;60.10
31585;BME280;18191;51.288;12.390;2023-05-10T02:16:27;48865.63;;;-144.47;60.92
31585;BME280;18191;51.288;12.390;2023-05-10T02:21:20;48889.50;;;-144.47;61.26
31585;BME280;18191;51.288;12.390;2023-05-10T02:26:11;48851.69;;;-144.47;61.65
31585;BME280;18191;51.288;12.390;2023-05-10T02:31:03;48865.63;;;-144.47;62.12
31585;BME280;18191;51.288;12.390;2023-05-10T02:35:55;48865.63;;;-144.47;62.12
31585;BME280;18191;51.288;12.390;2023-05-10T02:40:45;48839.75;;;-144.47;63.07
31585;BME280;18191;51.288;12.390;2023-05-10T02:45:36;48869.59;;;-144.47;63.34
31585;BME280;18191;51.288;12.390;2023-05-10T02:50:28;48893.47;;;-144.47;63.26
31585;BME280;18191;51.288;12.390;2023-05-10T02:55:25;48867.59;;;-144.47;63.14
31585;BME280;18191;51.288;12.390;2023-05-10T03:00:15;48869.59;;;-144.47;63.81
31585;BME280;18191;51.288;12.390;2023-05-10T03:05:06;48889.50;;;-144.47;63.11
31585;BME280;18191;51.288;12.390;2023-05-10T03:09:56;48865.63;;;-144.47;63.80
31585;BME280;18191;51.288;12.390;2023-05-10T03:19:55;48913.34;;;-144.47;64.13
31585;BME280;18191;51.288;12.390;2023-05-10T03:24:45;48871.59;;;-144.47;63.90
31585;BME280;18191;51.288;12.390;2023-05-10T03:29:36;48873.56;;;-144.47;64.11
31585;BME280;18191;51.288;12.390;2023-05-10T03:34:28;48889.50;;;-144.47;63.82
31585;BME280;18191;51.288;12.390;2023-05-10T03:39:20;48889.50;;;-144.47;63.43
31585;BME280;18191;51.288;12.390;2023-05-10T03:44:11;48875.56;;;-144.47;62.99
31585;BME280;18191;51.288;12.390;2023-05-10T03:49:01;48897.44;;;-144.47;62.32
31585;BME280;18191;51.288;12.390;2023-05-10T03:53:51;48871.59;;;-144.47;62.23
31585;BME280;18191;51.288;12.390;2023-05-10T03:58:41;48869.59;;;-144.47;61.67
31585;BME280;18191;51.288;12.390;2023-05-10T04:03:32;48869.59;;;-144.47;61.08
31585;BME280;18191;51.288;12.390;2023-05-10T04:08:22;48897.44;;;-144.47;60.62
31585;BME280;18191;51.288;12.390;2023-05-10T04:13:12;48891.47;;;-144.47;60.88
31585;BME280;18191;51.288;12.390;2023-05-10T04:18:02;48905.41;;;-144.47;59.72
31585;BME280;18191;51.288;12.390;2023-05-10T04:22:52;48879.53;;;-144.47;59.04
31585;BME280;18191;51.288;12.390;2023-05-10T04:27:43;48893.47;;;-144.47;58.73
31585;BME280;18191;51.288;12.390;2023-05-10T04:32:34;48889.50;;;-144.47;58.86
31585;BME280;18191;51.288;12.390;2023-05-10T04:37:24;48887.50;;;-144.47;58.36
31585;BME280;18191;51.288;12.390;2023-05-10T04:42:14;48869.59;;;-144.47;57.46
31585;BME280;18191;51.288;12.390;2023-05-10T04:47:05;48841.75;;;-144.47;57.38
31585;BME280;18191;51.288;12.390;2023-05-10T04:51:55;48889.50;;;-144.47;57.26
31585;BME280;18191;51.288;12.390;2023-05-10T04:56:46;48845.72;;;-144.47;56.23
31585;BME280;18191;51.288;12.390;2023-05-10T05:01:36;48841.75;;;-144.47;44.44
31585;BME280;18191;51.288;12.390;2023-05-10T05:06:26;48831.81;;;-144.47;39.31
31585;BME280;18191;51.288;12.390;2023-05-10T05:11:17;48853.69;;;-144.47;42.13
31585;BME280;18191;51.288;12.390;2023-05-10T05:16:07;48827.81;;;-144.47;41.62
31585;BME280;18191;51.288;12.390;2023-05-10T05:20:57;48839.75;;;-144.47;35.07
31585;BME280;18191;51.288;12.390;2023-05-10T05:25:48;48821.84;;;-144.47;33.46
31585;BME280;18191;51.288;12.390;2023-05-10T05:30:39;48817.88;;;-144.47;33.87
31585;BME280;18191;51.288;12.390;2023-05-10T05:35:32;48855.66;;;-144.47;32.80
31585;BME280;18191;51.288;12.390;2023-05-10T05:40:24;48837.78;;;-144.47;34.22
31585;BME280;18191;51.288;12.390;2023-05-10T05:45:14;48825.84;;;-144.47;38.75
31585;BME280;18191;51.288;12.390;2023-05-10T05:50:05;48853.69;;;-144.47;44.14
31585;BME280;18191;51.288;12.390;2023-05-10T05:54:55;48841.75;;;-144.47;45.04
31585;BME280;18191;51.288;12.390;2023-05-10T05:59:45;48817.88;;;-144.47;46.48
31585;BME280;18191;51.288;12.390;2023-05-10T06:04:36;48827.81;;;-144.47;46.25
31585;BME280;18191;51.288;12.390;2023-05-10T06:09:26;48863.63;;;-144.47;46.90
31585;BME280;18191;51.288;12.390;2023-05-10T06:14:17;48881.53;;;-144.47;45.90
31585;BME280;18191;51.288;12.390;2023-05-10T06:19:09;48853.69;;;-144.47;45.46
31585;BME280;18191;51.288;12.390;2023-05-10T06:24:00;48813.91;;;-144.47;43.52
31585;BME280;18191;51.288;12.390;2023-05-10T06:28:52;48831.81;;;-144.47;43.25
31585;BME280;18191;51.288;12.390;2023-05-10T06:33:42;48845.72;;;-144.47;43.33
31585;BME280;18191;51.288;12.390;2023-05-10T06:38:32;48851.69;;;-144.47;41.89
31585;BME280;18191;51.288;12.390;2023-05-10T06:43:23;48865.63;;;-144.47;39.87
31585;BME280;18191;51.288;12.390;2023-05-10T06:48:14;48857.66;;;-144.47;38.75
31585;BME280;18191;51.288;12.390;2023-05-10T06:53:05;48841.75;;;-144.47;38.87
31585;BME280;18191;51.288;12.390;2023-05-10T06:57:56;48889.50;;;-144.47;39.89
31585;BME280;18191;51.288;12.390;2023-05-10T07:02:47;48843.72;;;-144.47;39.53
31585;BME280;18191;51.288;12.390;2023-05-10T07:07:37;48871.59;;;-144.47;40.33
31585;BME280;18191;51.288;12.390;2023-05-10T07:12:27;48851.69;;;-144.47;39.62
31585;BME280;18191;51.288;12.390;2023-05-10T07:17:17;48833.78;;;-144.47;40.05
31585;BME280;18191;51.288;12.390;2023-05-10T07:22:08;48829.81;;;-144.47;39.00
31585;BME280;18191;51.288;12.390;2023-05-10T07:26:58;48837.78;;;-144.47;38.92
31585;BME280;18191;51.288;12.390;2023-05-10T07:31:48;48837.78;;;-144.47;37.17
31585;BME280;18191;51.288;12.390;2023-05-10T07:36:39;48821.84;;;-144.47;38.03
31585;BME280;18191;51.288;12.390;2023-05-10T07:41:29;48841.75;;;-144.47;38.53
31585;BME280;18191;51.288;12.390;2023-05-10T07:46:19;48853.69;;;-144.47;37.81
31585;BME280;18191;51.288;12.390;2023-05-10T07:51:10;48809.91;;;-144.47;38.29
31585;BME280;18191;51.288;12.390;2023-05-10T07:56:19;48863.63;;;-144.47;39.17
31585;BME280;18191;51.288;12.390;2023-05-10T08:01:09;48845.72;;;-144.47;39.76
31585;BME280;18191;51.288;12.390;2023-05-10T08:05:59;48889.50;;;-144.47;40.06
31585;BME280;18191;51.288;12.390;2023-05-10T08:10:50;48855.66;;;-144.47;40.12
31585;BME280;18191;51.288;12.390;2023-05-10T08:15:40;48863.63;;;-144.47;40.69
31585;BME280;18191;51.288;12.390;2023-05-10T08:20:30;48869.59;;;-144.47;41.20
31585;BME280;18191;51.288;12.390;2023-05-10T08:25:24;48863.63;;;-144.47;42.71
31585;BME280;18191;51.288;12.390;2023-05-10T08:30:14;48881.53;;;-144.47;43.11
31585;BME280;18191;51.288;12.390;2023-05-10T08:35:05;48869.59;;;-144.47;45.37
31585;BME280;18191;51.288;12.390;2023-05-10T08:39:55;48889.50;;;-144.47;46.46
31585;BME280;18191;51.288;12.390;2023-05-10T08:44:45;48891.47;;;-144.47;46.81
31585;BME280;18191;51.288;12.390;2023-05-10T08:49:37;48855.66;;;-144.47;48.14
31585;BME280;18191;51.288;12.390;2023-05-10T08:54:29;48845.72;;;-144.47;49.52
31585;BME280;18191;51.288;12.390;2023-05-10T08:59:20;48869.59;;;-144.47;52.35
31585;BME280;18191;51.288;12.390;2023-05-10T09:04:11;48837.78;;;-144.47;55.29
31585;BME280;18191;51.288;12.390;2023-05-10T09:09:02;48889.50;;;-144.47;57.36
31585;BME280;18191;51.288;12.390;2023-05-10T09:13:53;48885.50;;;-144.47;60.69
31585;BME280;18191;51.288;12.390;2023-05-10T09:18:45;48901.41;;;-144.47;64.29
31585;BME280;18191;51.288;12.390;2023-05-10T09:23:35;48889.50;;;-144.47;66.45
31585;BME280;18191;51.288;12.390;2023-05-10T09:28:25;48901.41;;;-144.47;68.93
31585;BME280;18191;51.288;12.390;2023-05-10T09:33:15;48891.47;;;-144.47;69.98
31585;BME280;18191;51.288;12.390;2023-05-10T09:38:07;48879.53;;;-144.47;71.83
31585;BME280;18191;51.288;12.390;2023-05-10T09:43:07;48861.63;;;-144.47;73.39
31585;BME280;18191;51.288;12.390;2023-05-10T09:47:58;48921.31;;;-144.47;74.12
31585;BME280;18191;51.288;12.390;2023-05-10T09:52:50;48961.09;;;-144.47;75.75
31585;BME280;18191;51.288;12.390;2023-05-10T09:57:43;48919.31;;;-144.47;75.38
31585;BME280;18191;51.288;12.390;2023-05-10T10:02:33;48877.56;;;-144.47;74.31
31585;BME280;18191;51.288;12.390;2023-05-10T10:07:24;48899.44;;;-144.47;72.19
31585;BME280;18191;51.288;12.390;2023-05-10T10:12:17;48927.28;;;-144.47;71.13
31585;BME280;18191;51.288;12.390;2023-05-10T10:17:07;48885.50;;;-144.47;72.14
31585;BME280;18191;51.288;12.390;2023-05-10T10:21:59;48937.22;;;-144.47;72.56
31585;BME280;18191;51.288;12.390;2023-05-10T10:26:50;48933.25;;;-144.47;72.81
31585;BME280;18191;51.288;12.390;2023-05-10T10:31:51;48921.31;;;-144.47;72.76
31585;BME280;18191;51.288;12.390;2023-05-10T10:36:46;48901.41;;;-144.47;72.77
31585;BME280;18191;51.288;12.390;2023-05-10T10:41:54;48917.34;;;-144.47;72.19
31585;BME280;18191;51.288;12.390;2023-05-10T10:57:12;48923.31;;;-144.47;74.15
31585;BME280;18191;51.288;12.390;2023-05-10T11:02:03;48903.41;;;-144.47;72.60
31585;BME280;18191;51.288;12.390;2023-05-10T11:07:00;48953.13;;;-144.47;73.05
31585;BME280;18191;51.288;12.390;2023-05-10T11:12:07;48921.31;;;-144.47;76.67
31585;BME280;18191;51.288;12.390;2023-05-10T11:16:58;48921.31;;;-144.47;74.90
31585;BME280;18191;51.288;12.390;2023-05-10T11:26:55;48911.38;;;-144.47;75.79
31585;BME280;18191;51.288;12.390;2023-05-10T11:31:46;48909.38;;;-144.47;77.80
31585;BME280;18191;51.288;12.390;2023-05-10T11:36:37;48925.28;;;-144.47;77.93
31585;BME280;18191;51.288;12.390;2023-05-10T11:41:28;48921.31;;;-144.47;77.63
31585;BME280;18191;51.288;12.390;2023-05-10T11:46:21;48915.34;;;-144.47;75.66
31585;BME280;18191;51.288;12.390;2023-05-10T11:51:12;48897.44;;;-144.47;76.00
31585;BME280;18191;51.288;12.390;2023-05-10T11:56:03;48941.19;;;-144.47;76.22
31585;BME280;18191;51.288;12.390;2023-05-10T12:00:53;48889.50;;;-144.47;73.63
31585;BME280;18191;51.288;12.390;2023-05-10T12:05:43;48933.25;;;-144.47;75.29
31585;BME280;18191;51.288;12.390;2023-05-10T12:10:34;48949.16;;;-144.47;75.44
31585;BME280;18191;51.288;12.390;2023-05-10T12:15:25;48921.31;;;-144.47;76.93
31585;BME280;18191;51.288;12.390;2023-05-10T12:20:17;48901.41;;;-144.47;80.27
31585;BME280;18191;51.288;12.390;2023-05-10T12:25:08;48953.13;;;-144.47;78.16
31585;BME280;18191;51.288;12.390;2023-05-10T12:29:59;48937.22;;;-144.47;76.94
31585;BME280;18191;51.288;12.390;2023-05-10T12:34:51;48895.44;;;-144.47;76.28
31585;BME280;18191;51.288;12.390;2023-05-10T12:39:43;48937.22;;;-144.47;72.51
31585;BME280;18191;51.288;12.390;2023-05-10T12:44:34;48917.34;;;-144.47;71.32
31585;BME280;18191;51.288;12.390;2023-05-10T12:49:24;48929.28;;;-144.47;70.62
31585;BME280;18191;51.288;12.390;2023-05-10T12:54:14;48903.41;;;-144.47;70.71
31585;BME280;18191;51.288;12.390;2023-05-10T12:59:05;48929.28;;;-144.47;69.68
31585;BME280;18191;51.288;12.390;2023-05-10T13:03:55;48893.47;;;-144.47;70.76
31585;BME280;18191;51.288;12.390;2023-05-10T13:08:45;48915.34;;;-144.47;70.77
31585;BME280;18191;51.288;12.390;2023-05-10T13:13:35;48921.31;;;-144.47;67.47
31585;BME280;18191;51.288;12.390;2023-05-10T13:18:25;48921.31;;;-144.47;67.89
31585;BME280;18191;51.288;12.390;2023-05-10T13:23:16;48935.25;;;-144.47;73.03
31585;BME280;18191;51.288;12.390;2023-05-10T13:28:06;48933.25;;;-144.47;70.28
31585;BME280;18191;51.288;12.390;2023-05-10T13:32:56;48911.38;;;-144.47;67.41
31585;BME280;18191;51.288;12.390;2023-05-10T13:37:46;48937.22;;;-144.47;66.13
31585;BME280;18191;51.288;12.390;2023-05-10T13:42:37;48905.41;;;-144.47;66.44
31585;BME280;18191;51.288;12.390;2023-05-10T13:47:27;48945.19;;;-144.47;67.72
31585;BME280;18191;51.288;12.390;2023-05-10T13:52:18;48909.38;;;-144.47;68.48
31585;BME280;18191;51.288;12.390;2023-05-10T13:57:08;48897.44;;;-144.47;70.85
31585;BME280;18191;51.288;12.390;2023-05-10T14:01:59;48909.38;;;-144.47;68.26
31585;BME280;18191;51.288;12.390;2023-05-10T14:06:50;48939.22;;;-144.47;69.87
31585;BME280;18191;51.288;12.390;2023-05-10T14:11:40;48949.16;;;-144.47;68.56
31585;BME280;18191;51.288;12.390;2023-05-10T14:16:33;48921.31;;;-144.47;69.33
31585;BME280;18191;51.288;12.390;2023-05-10T14:21:23;48917.34;;;-144.47;70.74
31585;BME280;18191;51.288;12.390;2023-05-10T14:26:13;48903.41;;;-144.47;72.62
31585;BME280;18191;51.288;12.390;2023-05-10T14:31:03;48937.22;;;-144.47;71.78
31585;BME280;18191;51.288;12.390;2023-05-10T14:35:54;48945.19;;;-144.47;70.64
31585;BME280;18191;51.288;12.390;2023-05-10T14:40:46;48901.41;;;-144.47;70.74
31585;BME280;18191;51.288;12.390;2023-05-10T14:45:36;48929.28;;;-144.47;72.51
31585;BME280;18191;51.288;12.390;2023-05-10T14:50:27;48919.31;;;-144.47;74.20
31585;BME280;18191;51.288;12.390;2023-05-10T14:55:17;48965.06;;;-144.47;77.36
31585;BME280;18191;51.288;12.390;2023-05-10T15:00:07;48945.19;;;-144.47;80.07
31585;BME280;18191;51.288;12.390;2023-05-10T15:04:58;48937.22;;;-144.47;83.76
31585;BME280;18191;51.288;12.390;2023-05-10T15:09:48;48917.34;;;-144.47;83.57
31585;BME280;18191;51.288;12.390;2023-05-10T15:14:38;48945.19;;;-144.47;82.47
31585;BME280;18191;51.288;12.390;2023-05-10T15:19:28;48977.00;;;-144.47;81.38
31585;BME280;18191;51.288;12.390;2023-05-10T15:24:19;48992.94;;;-144.47;82.71
31585;BME280;18191;51.288;12.390;2023-05-10T15:29:09;48921.31;;;-144.47;84.78
31585;BME280;18191;51.288;12.390;2023-05-10T15:33:59;48941.19;;;-144.47;83.87
31585;BME280;18191;51.288;12.390;2023-05-10T15:38:49;48919.31;;;-144.47;82.84
31585;BME280;18191;51.288;12.390;2023-05-10T15:43:40;48953.13;;;-144.47;82.37
31585;BME280;18191;51.288;12.390;2023-05-10T15:48:30;48951.16;;;-144.47;80.22
31585;BME280;18191;51.288;12.390;2023-05-10T15:53:21;48957.13;;;-144.47;80.41
31585;BME280;18191;51.288;12.390;2023-05-10T15:58:11;48977.00;;;-144.47;80.05
31585;BME280;18191;51.288;12.390;2023-05-10T16:03:01;48984.97;;;-144.47;79.70
31585;BME280;18191;51.288;12.390;2023-05-10T16:07:51;48996.91;;;-144.47;78.83
31585;BME280;18191;51.288;12.390;2023-05-10T16:12:42;48969.06;;;-144.47;77.72
31585;BME280;18191;51.288;12.390;2023-05-10T16:17:32;48941.19;;;-144.47;78.71
31585;BME280;18191;51.288;12.390;2023-05-10T16:22:22;48933.25;;;-144.47;82.40
31585;BME280;18191;51.288;12.390;2023-05-10T16:27:16;48893.47;;;-144.47;82.28
31585;BME280;18191;51.288;12.390;2023-05-10T16:32:07;48973.03;;;-144.47;79.97
31585;BME280;18191;51.288;12.390;2023-05-10T16:36:57;48973.03;;;-144.47;81.69
31585;BME280;18191;51.288;12.390;2023-05-10T16:41:47;48941.19;;;-144.47;79.39
31585;BME280;18191;51.288;12.390;2023-05-10T16:46:38;48973.03;;;-144.47;79.93
31585;BME280;18191;51.288;12.390;2023-05-10T16:51:28;48945.19;;;-144.47;81.13
31585;BME280;18191;51.288;12.390;2023-05-10T16:56:18;48961.09;;;-144.47;79.51
31585;BME280;18191;51.288;12.390;2023-05-10T17:01:10;48953.13;;;-144.47;80.68
31585;BME280;18191;51.288;12.390;2023-05-10T17:06:01;48957.13;;;-144.47;80.92
31585;BME280;18191;51.288;12.390;2023-05-10T17:10:51;48984.97;;;-144.47;80.56
31585;BME280;18191;51.288;12.390;2023-05-10T17:15:41;48984.97;;;-144.47;82.15
31585;BME280;18191;51.288;12.390;2023-05-10T17:20:31;48945.19;;;-144.47;82.07
31585;BME280;18191;51.288;12.390;2023-05-10T17:25:21;48973.03;;;-144.47;82.59
31585;BME280;18191;51.288;12.390;2023-05-10T17:30:12;49002.88;;;-144.47;83.44
31585;BME280;18191;51.288;12.390;2023-05-10T17:35:02;48949.16;;;-144.47;84.47
31585;BME280;18191;51.288;12.390;2023-05-10T17:39:54;48984.97;;;-144.47;84.71
31585;BME280;18191;51.288;12.390;2023-05-10T17:44:44;48959.09;;;-144.47;86.38
31585;BME280;18191;51.288;12.390;2023-05-10T17:49:34;48943.19;;;-144.47;86.08
31585;BME280;18191;51.288;12.390;2023-05-10T17:54:24;48941.19;;;-144.47;86.66
31585;BME280;18191;51.288;12.390;2023-05-10T17:59:14;48945.19;;;-144.47;87.05
31585;BME280;18191;51.288;12.390;2023-05-10T18:04:04;48965.06;;;-144.47;87.32
31585;BME280;18191;51.288;12.390;2023-05-10T18:08:55;48937.22;;;-144.47;87.43
31585;BME280;18191;51.288;12.390;2023-05-10T18:13:45;48965.06;;;-144.47;87.54
31585;BME280;18191;51.288;12.390;2023-05-10T18:18:35;48941.19;;;-144.47;86.30
31585;BME280;18191;51.288;12.390;2023-05-10T18:23:25;48965.06;;;-144.47;86.78
31585;BME280;18191;51.288;12.390;2023-05-10T18:28:16;48973.03;;;-144.47;88.05
31585;BME280;18191;51.288;12.390;2023-05-10T18:33:06;48953.13;;;-144.47;88.26
31585;BME280;18191;51.288;12.390;2023-05-10T18:37:57;48959.09;;;-144.47;89.38
31585;BME280;18191;51.288;12.390;2023-05-10T18:42:47;48981.00;;;-144.47;89.69
31585;BME280;18191;51.288;12.390;2023-05-10T18:47:39;48988.94;;;-144.47;90.14
31585;BME280;18191;51.288;12.390;2023-05-10T18:52:29;48957.13;;;-144.47;90.96
31585;BME280;18191;51.288;12.390;2023-05-10T18:57:19;49024.75;;;-144.47;91.34
31585;BME280;18191;51.288;12.390;2023-05-10T19:02:10;48988.94;;;-144.47;91.29
31585;BME280;18191;51.288;12.390;2023-05-10T19:07:01;49024.75;;;-144.47;90.95
31585;BME280;18191;51.288;12.390;2023-05-10T19:11:52;48957.13;;;-144.47;90.73
31585;BME280;18191;51.288;12.390;2023-05-10T19:16:42;48996.91;;;-144.47;90.10
31585;BME280;18191;51.288;12.390;2023-05-10T19:21:33;48981.00;;;-144.47;90.17
31585;BME280;18191;51.288;12.390;2023-05-10T19:26:23;48973.03;;;-144.47;90.81
31585;BME280;18191;51.288;12.390;2023-05-10T19:31:13;48986.97;;;-144.47;91.88
31585;BME280;18191;51.288;12.390;2023-05-10T19:36:03;48937.22;;;-144.47;91.78
31585;BME280;18191;51.288;12.390;2023-05-10T19:40:54;49012.81;;;-144.47;92.82
31585;BME280;18191;51.288;12.390;2023-05-10T19:45:46;48984.97;;;-144.47;94.92
31585;BME280;18191;51.288;12.390;2023-05-10T19:50:37;48965.06;;;-144.47;95.99
31585;BME280;18191;51.288;12.390;2023-05-10T19:55:27;48996.91;;;-144.47;95.55
31585;BME280;18191;51.288;12.390;2023-05-10T20:00:18;48988.94;;;-144.47;95.64
31585;BME280;18191;51.288;12.390;2023-05-10T20:05:08;48984.97;;;-144.47;95.20
31585;BME280;18191;51.288;12.390;2023-05-10T20:09:58;48961.09;;;-144.47;94.64
31585;BME280;18191;51.288;12.390;2023-05-10T20:14:49;48961.09;;;-144.47;94.28
31585;BME280;18191;51.288;12.390;2023-05-10T20:19:39;49000.88;;;-144.47;94.12
31585;BME280;18191;51.288;12.390;2023-05-10T20:24:29;48969.06;;;-144.47;94.22
31585;BME280;18191;51.288;12.390;2023-05-10T20:29:20;48981.00;;;-144.47;94.66
31585;BME280;18191;51.288;12.390;2023-05-10T20:34:10;49008.84;;;-144.47;94.67
31585;BME280;18191;51.288;12.390;2023-05-10T20:39:00;49020.78;;;-144.47;94.41
31585;BME280;18191;51.288;12.390;2023-05-10T20:43:50;48981.00;;;-144.47;94.58
31585;BME280;18191;51.288;12.390;2023-05-10T20:48:40;49010.81;;;-144.47;95.08
31585;BME280;18191;51.288;12.390;2023-05-10T20:53:31;48965.06;;;-144.47;95.22
31585;BME280;18191;51.288;12.390;2023-05-10T20:58:21;48986.97;;;-144.47;95.02
31585;BME280;18191;51.288;12.390;2023-05-10T21:03:12;49008.84;;;-144.47;95.23
31585;BME280;18191;51.288;12.390;2023-05-10T21:08:03;48975.03;;;-144.47;95.64
31585;BME280;18191;51.288;12.390;2023-05-10T21:12:53;48996.91;;;-144.47;95.75
31585;BME280;18191;51.288;12.390;2023-05-10T21:17:44;48981.00;;;-144.47;96.34
31585;BME280;18191;51.288;12.390;2023-05-10T21:22:35;48961.09;;;-144.47;95.66
31585;BME280;18191;51.288;12.390;2023-05-10T21:27:25;49006.84;;;-144.47;95.31
31585;BME280;18191;51.288;12.390;2023-05-10T21:32:15;48996.91;;;-144.47;95.76
31585;BME280;18191;51.288;12.390;2023-05-10T21:37:06;49008.84;;;-144.47;96.09
31585;BME280;18191;51.288;12.390;2023-05-10T21:41:56;49016.78;;;-144.47;96.61
31585;BME280;18191;51.288;12.390;2023-05-10T21:46:46;49012.81;;;-144.47;97.42
31585;BME280;18191;51.288;12.390;2023-05-10T21:51:36;49020.78;;;-144.47;98.21
31585;BME280;18191;51.288;12.390;2023-05-10T21:56:27;49020.78;;;-144.47;97.72
31585;BME280;18191;51.288;12.390;2023-05-10T22:01:17;49000.88;;;-144.47;97.23
31585;BME280;18191;51.288;12.390;2023-05-10T22:06:08;48986.97;;;-144.47;96.35
31585;BME280;18191;51.288;12.390;2023-05-10T22:10:58;48973.03;;;-144.47;96.80
31585;BME280;18191;51.288;12.390;2023-05-10T22:15:48;48992.94;;;-144.47;96.75
31585;BME280;18191;51.288;12.390;2023-05-10T22:20:38;48957.13;;;-144.47;96.92
31585;BME280;18191;51.288;12.390;2023-05-10T22:25:29;48981.00;;;-144.47;97.52
31585;BME280;18191;51.288;12.390;2023-05-10T22:30:19;49008.84;;;-144.47;98.54
31585;BME280;18191;51.288;12.390;2023-05-10T22:35:09;48990.94;;;-144.47;98.87
31585;BME280;18191;51.288;12.390;2023-05-10T22:40:00;48986.97;;;-144.47;98.75
31585;BME280;18191;51.288;12.390;2023-05-10T22:44:50;48961.09;;;-144.47;98.95
31585;BME280;18191;51.288;12.390;2023-05-10T22:49:40;49012.81;;;-144.47;98.72
31585;BME280;18191;51.288;12.390;2023-05-10T22:54:30;48990.94;;;-144.47;98.77
31585;BME280;18191;51.288;12.390;2023-05-10T22:59:20;48988.94;;;-144.47;99.01
31585;BME280;18191;51.288;12.390;2023-05-10T23:04:11;49024.75;;;-144.47;98.18
31585;BME280;18191;51.288;12.390;2023-05-10T23:09:01;48988.94;;;-144.47;98.05
31585;BME280;18191;51.288;12.390;2023-05-10T23:13:51;49072.50;;;-144.47;98.34
31585;BME280;18191;51.288;12.390;2023-05-10T23:18:41;49006.84;;;-144.47;98.80
31585;BME280;18191;51.288;12.390;2023-05-10T23:23:31;48996.91;;;-144.47;98.15
31585;BME280;18191;51.288;12.390;2023-05-10T23:28:22;48992.94;;;-144.47;98.83
31585;BME280;18191;51.288;12.390;2023-05-10T23:33:13;48969.06;;;-144.47;99.34
31585;BME280;18191;51.288;12.390;2023-05-10T23:38:03;48988.94;;;-144.47;98.48
31585;BME280;18191;51.288;12.390;2023-05-10T23:42:53;48957.13;;;-144.47;98.21
31585;BME280;18191;51.288;12.390;2023-05-10T23:47:43;48973.03;;;-144.47;97.98
31585;BME280;18191;51.288;12.390;2023-05-10T23:52:33;48984.97;;;-144.47;98.15
31585;BME280;18191;51.288;12.390;2023-05-10T23:57:24;49004.84;;;-144.47;98.67
